Du har inga inställningar för hoppväder.nu

Hoppväder.nu

Senast uppdaterat 18:42

UTC-tid

2024-04-13 kl. 16:42


Sol och måne

Solen går upp 6:02 och går ner 21:11 (beräknade cirkatider)
Nästa fullmåne blir om 11 dagar (2024-04-24)

METAR

ESMS (Malmö)
(22 minuter sedan)
ESMS 131620Z 24013KT 9999 FEW030 14/10 Q1016=



ESMK (Everöd)
(22 minuter sedan)
ESMK 131620Z AUTO 26011KT 230V290 9999 NCD 15/11 Q1015=



ESTL (Ljungbyhed)
(22 minuter sedan)
ESTL 131620Z AUTO 25009KT 9999 SCT031/// BKN038/// 15/10 Q1015=



EKCH (Köpenhamn)
(22 minuter sedan)
EKCH 131620Z AUTO 23014KT 9999 BKN028/// 14/10 Q1016 NOSIG=



ESTA (Ängelholm)
(22 minuter sedan)
ESTA 131620Z AUTO 27008KT 9999 BKN026/// OVC031/// 13/10 Q1015=



TAF

ESMS (Malmö)
(157 minuter sedan)
ESMS 131405Z 1315/1415 22012KT 9999 SCT015 TEMPO 1321/1324 4000 RADZ BKN012 BECMG 1400/1402 3000 RA BKN006 BECMG 1402/1404 28015G28KT 9999 NSW BKN020 TEMPO 1414/1415 SHRA SCT030CB=



ESMK (Everöd)
ESMK



ESTL (Ljungbyhed)
ESTL



EKCH (Köpenhamn)
(330 minuter sedan)
EKCH 131112Z 1312/1412 23012KT 9999 FEW012 TEMPO 1321/1323 4500 RADZ BKN014 BECMG 1323/1401 4000 RA BKN009 BECMG 1401/1403 28018G30KT 9999 NSW BKN025=



ESTA (Ängelholm)
(327 minuter sedan)
ESTA 131115Z 1312/1315 23012KT 9999 FEW012 SCT025=





Kodnycklar till TAF och METAR






LHP

(Eslöv är område se11f i Hela Område 1)

Översikt

ÄNDRAD ÖVERSIKT FÖR OMRÅDE se1 UTFÄRDAD 131225

GÄLLANDE DEN 13 APRIL 2024 MELLAN 12 OCH 20 UTC


Väderöversikt
Se väderöversikt för område se2 + se3
Sikt under 5 kilometer eller molnbas under 1000 fot
Väntas inte förekomma under perioden
Måttlig eller svår isbildning
Väntas inte förekomma under perioden
Måttlig eller svår turbulens
Väntas inte förekomma under perioden


Hela Område 1

ÄNDRAD PROGNOS FÖR OMRÅDE se11 UTFÄRDAD 131225
GÄLLANDE DEN 13 APRIL 2024 MELLAN 12 OCH 20 UTC


Måttlig eller svår turbulens
12-20UTC: I hela området: Väntas inte förekomma under perioden

Måttlig eller svår isbildning
12-20UTC: I hela området: Väntas inte förekomma under perioden

Sikt/Väder/Moln
12-14UTC: Område se11a, se11b, se11d, se11g, se11i: Sikt >8km. Molnbas 1500ft - >4000ft.
Område se11c, se11e, se11f, se11h: Sikt >8km. Molnbas >4000ft, lokalt 1500ft - 2000ft.

14-18UTC: Område se11a, se11b, se11g, se11i: Sikt >8km. Molnbas 2000ft - >4000ft.
Område se11c, se11d, se11e, se11f, se11h: Sikt >8km. Molnbas >4000ft, lokalt 2000ft - 4000ft.

18-20UTC: Område se11a, se11c, se11g, se11i: Sikt 5km - >8km i regn. Molnbas 1000ft - >4000ft.
Område se11b, se11d, se11e, se11f, se11h: Sikt >8km, lokalt 5km - 8km i regn. Molnbas >4000ft, lokalt 1000ft - 1500ft.


Molnöversida
12-14UTC: I hela området: Molnöversida FL060.
14-20UTC: I hela området: Ingen prognos

CB/TCU Moln
12-20UTC: I hela området: Väntas inte förekomma under perioden

Nollgradersisoterm
12-16UTC: Område se11a: Noll grader FL065 - FL090.

12-18UTC: Område se11b, se11c, se11d, se11e, se11f, se11g, se11h, se11i: Noll grader FL075 - FL090.

16-18UTC: Område se11a: Noll grader FL055 - FL090.

18-20UTC: I hela området: Noll grader FL060 - FL090.

Vind vid marken
12-14UTC: Område se11a: SV-V/6-17 knop, byar upp till 25 knop.
Område se11b: SV-V/8-17 knop, byar upp till 23 knop.
Område se11c: SV-V/5-14 knop, byar upp till 22 knop.
Område se11d: SV-V/7-17 knop, byar upp till 27 knop.
Område se11e: V/6-11 knop, byar upp till 24 knop.
Område se11f: SV-V/6-14 knop, byar upp till 24 knop.
Område se11g: SV-V/8-19 knop, byar upp till 26 knop.
Område se11h: SV-V/7-21 knop, byar upp till 26 knop.
Område se11i: SV-V/9-22 knop, byar upp till 32 knop.

14-16UTC: Område se11a: SV/6-17 knop, byar upp till 25 knop.
Område se11b: SV/7-17 knop, byar upp till 21 knop.
Område se11c: SV/5-14 knop, byar upp till 21 knop.
Område se11d: SV-V/6-17 knop, byar upp till 28 knop.
Område se11e: V/5-11 knop, byar upp till 22 knop.
Område se11f: SV-V/6-13 knop, byar upp till 24 knop.
Område se11g: SV-V/8-16 knop, byar upp till 23 knop.
Område se11h: SV-V/6-19 knop, byar upp till 25 knop.
Område se11i: SV-V/9-19 knop, byar upp till 30 knop.

16-18UTC: Område se11a: SV/6-16 knop, byar upp till 23 knop.
Område se11b: SV/4-16 knop, byar upp till 19 knop.
Område se11c: SV/4-13 knop, byar upp till 18 knop.
Område se11d: SV-V/4-16 knop, byar upp till 25 knop.
Område se11e: SV-V/4-10 knop, byar upp till 20 knop.
Område se11f: SV-V/4-12 knop, byar upp till 21 knop.
Område se11g: SV/7-15 knop, byar upp till 19 knop.
Område se11h: SV/4-17 knop, byar upp till 23 knop.
Område se11i: SV-V/6-17 knop, byar upp till 25 knop.

18-20UTC: Område se11a: S-SV/4-19 knop, byar upp till 22 knop.
Område se11b: S-SV/6-16 knop, byar upp till 20 knop.
Område se11c: S-SV/5-11 knop, byar upp till 18 knop.
Område se11d: SV/4-15 knop, byar upp till 23 knop.
Område se11e: SV/3-9 knop, byar upp till 20 knop.
Område se11f: SV/4-12 knop, byar upp till 21 knop.
Område se11g: S-SV/4-13 knop, byar upp till 19 knop.
Område se11h: SV/5-15 knop, byar upp till 20 knop.
Område se11i: SV-V/6-16 knop, byar upp till 23 knop.


Genomsnittlig vind och temperatur för området

2000ft:
12-14UTC: 270/25kt +9.
14-16UTC: 270/23kt +9.
16-18UTC: 260/22kt +9.
18-20UTC: 250/26kt +9.

FL050:
12-16UTC: 270/30kt +6.
16-18UTC: 260/29kt +5.
18-20UTC: 260/30kt +5.

FL100:
12-14UTC: 280/40kt -4.
14-16UTC: 270/40kt -4.
16-18UTC: 270/39kt -4.
18-20UTC: 260/38kt -4.

Lägsta QNH
12-14UTC: I hela området: 1014 hPa
14-16UTC: I hela området: 1013 hPa
16-18UTC: I hela området: 1011 hPa
18-20UTC: I hela området: 1008 hPa, fallande till

OBS! endast utbredd måttlig eller svår isbildning och turbulens prognostiseras i LLF.
Avsaknad av isbildning och turbulens i prognosen utesluter inte förekomst av lätt isbildning och turbulens.
För indikation på lätt isbildning, var vänlig kontrollera om prognosen för molntopp ligger högre än nollgradersisotermen.
Förekomst av TCU eller CB medför alltid en risk för måttlig eller svår isbildning och turbulens även om det inte framgår explicit av prognosen.






Spotting

Hur fungerar spotthjälpen och Vindkartan?

Markvind är ca 2-6 m/s med byar på 11 m/s.
Vind på 600 m ca 11 m/s.
Vind på 1500 m ca 15 m/s.
Vind på 3000 m ca 20 m/s.
Caravanen flyger ca 21 m/s över marken på finalen.
Du driver ca 903 m bakåt i frifall. (1204 m)
Lämplig spot är 29 sekunder eller 612 m efter gropen.
(43 s eller 907 m)
För små grupper eller ensamhoppare bör man vänta 7-10 sekunder mellan grupperna.
För större grupper bör man vänta 14-17 sekunder mellan grupperna.


Vindkartan

Senast uppdaterad 18:42




All data kommer från LFV.se